sensor_id;sensor_type;location;lat;lon;timestamp;P1;durP1;ratioP1;P2;durP2;ratioP2
2848;SDS011;59355;52.416;13.412;2022-12-07T00:00:52;18.57;;;11.67;;
2848;SDS011;59355;52.416;13.412;2022-12-07T00:03:17;16.83;;;13.30;;
2848;SDS011;59355;52.416;13.412;2022-12-07T00:05:42;14.10;;;11.27;;
2848;SDS011;59355;52.416;13.412;2022-12-07T00:08:08;16.40;;;11.97;;
2848;SDS011;59355;52.416;13.412;2022-12-07T00:10:33;15.83;;;10.93;;
2848;SDS011;59355;52.416;13.412;2022-12-07T00:12:59;16.80;;;12.20;;
2848;SDS011;59355;52.416;13.412;2022-12-07T00:15:24;14.20;;;10.97;;
2848;SDS011;59355;52.416;13.412;2022-12-07T00:17:49;16.93;;;12.33;;
2848;SDS011;59355;52.416;13.412;2022-12-07T00:20:15;15.37;;;12.43;;
2848;SDS011;59355;52.416;13.412;2022-12-07T00:22:40;18.60;;;12.97;;
2848;SDS011;59355;52.416;13.412;2022-12-07T00:25:05;14.60;;;11.70;;
2848;SDS011;59355;52.416;13.412;2022-12-07T00:27:31;15.53;;;11.27;;
2848;SDS011;59355;52.416;13.412;2022-12-07T00:29:56;15.60;;;10.80;;
2848;SDS011;59355;52.416;13.412;2022-12-07T00:32:22;13.33;;;10.60;;
2848;SDS011;59355;52.416;13.412;2022-12-07T00:34:47;14.33;;;11.00;;
2848;SDS011;59355;52.416;13.412;2022-12-07T00:37:12;14.27;;;11.50;;
2848;SDS011;59355;52.416;13.412;2022-12-07T00:39:37;15.47;;;11.30;;
2848;SDS011;59355;52.416;13.412;2022-12-07T00:42:03;11.47;;;9.03;;
2848;SDS011;59355;52.416;13.412;2022-12-07T00:44:28;11.97;;;10.77;;
2848;SDS011;59355;52.416;13.412;2022-12-07T00:46:53;12.00;;;9.70;;
2848;SDS011;59355;52.416;13.412;2022-12-07T00:49:20;11.00;;;9.40;;
2848;SDS011;59355;52.416;13.412;2022-12-07T00:51:47;13.03;;;11.53;;
2848;SDS011;59355;52.416;13.412;2022-12-07T00:54:13;12.30;;;9.93;;
2848;SDS011;59355;52.416;13.412;2022-12-07T00:56:38;10.00;;;8.93;;
2848;SDS011;59355;52.416;13.412;2022-12-07T00:59:04;12.90;;;9.80;;
2848;SDS011;59355;52.416;13.412;2022-12-07T01:01:31;11.57;;;9.23;;
2848;SDS011;59355;52.416;13.412;2022-12-07T01:03:57;9.67;;;7.97;;
2848;SDS011;59355;52.416;13.412;2022-12-07T01:06:23;10.40;;;9.47;;
2848;SDS011;59355;52.416;13.412;2022-12-07T01:08:49;11.70;;;9.47;;
2848;SDS011;59355;52.416;13.412;2022-12-07T01:11:16;13.50;;;10.20;;
2848;SDS011;59355;52.416;13.412;2022-12-07T01:13:42;11.00;;;9.03;;
2848;SDS011;59355;52.416;13.412;2022-12-07T01:16:09;10.77;;;8.77;;
2848;SDS011;59355;52.416;13.412;2022-12-07T01:18:36;9.93;;;8.63;;
2848;SDS011;59355;52.416;13.412;2022-12-07T01:23:30;9.23;;;8.10;;
2848;SDS011;59355;52.416;13.412;2022-12-07T01:25:59;12.50;;;9.23;;
2848;SDS011;59355;52.416;13.412;2022-12-07T01:28:26;11.70;;;8.37;;
2848;SDS011;59355;52.416;13.412;2022-12-07T01:31:11;10.23;;;8.13;;
2848;SDS011;59355;52.416;13.412;2022-12-07T01:33:40;10.30;;;9.30;;
2848;SDS011;59355;52.416;13.412;2022-12-07T01:36:16;9.40;;;7.90;;
2848;SDS011;59355;52.416;13.412;2022-12-07T01:38:53;8.80;;;7.70;;
2848;SDS011;59355;52.416;13.412;2022-12-07T01:41:21;9.20;;;7.83;;
2848;SDS011;59355;52.416;13.412;2022-12-07T01:46:33;8.80;;;7.90;;
2848;SDS011;59355;52.416;13.412;2022-12-07T01:48:58;9.10;;;7.83;;
2848;SDS011;59355;52.416;13.412;2022-12-07T01:51:24;8.67;;;7.67;;
2848;SDS011;59355;52.416;13.412;2022-12-07T01:53:50;9.00;;;8.10;;
2848;SDS011;59355;52.416;13.412;2022-12-07T01:56:17;10.57;;;8.37;;
2848;SDS011;59355;52.416;13.412;2022-12-07T01:58:45;10.37;;;9.30;;
2848;SDS011;59355;52.416;13.412;2022-12-07T02:01:10;12.20;;;8.77;;
2848;SDS011;59355;52.416;13.412;2022-12-07T02:03:36;10.97;;;9.03;;
2848;SDS011;59355;52.416;13.412;2022-12-07T02:06:04;8.63;;;7.73;;
2848;SDS011;59355;52.416;13.412;2022-12-07T02:08:31;10.30;;;8.70;;
2848;SDS011;59355;52.416;13.412;2022-12-07T02:10:56;9.83;;;8.47;;
2848;SDS011;59355;52.416;13.412;2022-12-07T02:13:22;12.10;;;10.20;;
2848;SDS011;59355;52.416;13.412;2022-12-07T02:15:57;10.10;;;9.07;;
2848;SDS011;59355;52.416;13.412;2022-12-07T02:18:53;9.43;;;8.40;;
2848;SDS011;59355;52.416;13.412;2022-12-07T02:24:36;9.10;;;8.20;;
2848;SDS011;59355;52.416;13.412;2022-12-07T02:27:27;9.30;;;8.37;;
2848;SDS011;59355;52.416;13.412;2022-12-07T02:30:15;8.67;;;7.87;;
2848;SDS011;59355;52.416;13.412;2022-12-07T02:35:31;8.33;;;7.53;;
2848;SDS011;59355;52.416;13.412;2022-12-07T02:38:08;8.53;;;7.67;;
2848;SDS011;59355;52.416;13.412;2022-12-07T02:40:43;10.67;;;8.87;;
2848;SDS011;59355;52.416;13.412;2022-12-07T02:43:16;9.70;;;8.67;;
2848;SDS011;59355;52.416;13.412;2022-12-07T02:45:44;10.37;;;9.30;;
2848;SDS011;59355;52.416;13.412;2022-12-07T02:48:11;10.83;;;8.50;;
2848;SDS011;59355;52.416;13.412;2022-12-07T02:50:38;9.00;;;7.97;;
2848;SDS011;59355;52.416;13.412;2022-12-07T02:53:03;10.90;;;7.60;;
2848;SDS011;59355;52.416;13.412;2022-12-07T02:55:30;10.07;;;8.50;;
2848;SDS011;59355;52.416;13.412;2022-12-07T02:58:14;8.50;;;7.50;;
2848;SDS011;59355;52.416;13.412;2022-12-07T03:00:52;8.70;;;7.40;;
2848;SDS011;59355;52.416;13.412;2022-12-07T03:03:38;8.33;;;7.03;;
2848;SDS011;59355;52.416;13.412;2022-12-07T03:06:20;8.87;;;7.23;;
2848;SDS011;59355;52.416;13.412;2022-12-07T03:08:50;7.93;;;7.13;;
2848;SDS011;59355;52.416;13.412;2022-12-07T03:11:23;8.80;;;7.67;;
2848;SDS011;59355;52.416;13.412;2022-12-07T03:13:55;9.03;;;8.17;;
2848;SDS011;59355;52.416;13.412;2022-12-07T03:16:29;9.53;;;8.10;;
2848;SDS011;59355;52.416;13.412;2022-12-07T03:19:03;11.70;;;9.33;;
2848;SDS011;59355;52.416;13.412;2022-12-07T03:21:32;10.23;;;8.27;;
2848;SDS011;59355;52.416;13.412;2022-12-07T03:24:00;11.33;;;8.50;;
2848;SDS011;59355;52.416;13.412;2022-12-07T03:26:34;10.50;;;9.07;;
2848;SDS011;59355;52.416;13.412;2022-12-07T03:29:05;11.07;;;8.93;;
2848;SDS011;59355;52.416;13.412;2022-12-07T03:31:41;11.90;;;9.50;;
2848;SDS011;59355;52.416;13.412;2022-12-07T03:37:00;10.70;;;8.50;;
2848;SDS011;59355;52.416;13.412;2022-12-07T03:39:34;13.07;;;10.43;;
2848;SDS011;59355;52.416;13.412;2022-12-07T03:42:03;12.43;;;10.17;;
2848;SDS011;59355;52.416;13.412;2022-12-07T03:44:30;10.23;;;8.43;;
2848;SDS011;59355;52.416;13.412;2022-12-07T03:52:36;12.27;;;10.27;;
2848;SDS011;59355;52.416;13.412;2022-12-07T03:55:11;12.37;;;10.10;;
2848;SDS011;59355;52.416;13.412;2022-12-07T03:57:41;14.13;;;9.53;;
2848;SDS011;59355;52.416;13.412;2022-12-07T04:00:07;15.53;;;10.27;;
2848;SDS011;59355;52.416;13.412;2022-12-07T04:02:33;17.97;;;12.03;;
2848;SDS011;59355;52.416;13.412;2022-12-07T04:04:58;14.03;;;10.63;;
2848;SDS011;59355;52.416;13.412;2022-12-07T04:07:24;13.87;;;11.90;;
2848;SDS011;59355;52.416;13.412;2022-12-07T04:09:49;15.93;;;12.13;;
2848;SDS011;59355;52.416;13.412;2022-12-07T04:12:15;14.57;;;10.93;;
2848;SDS011;59355;52.416;13.412;2022-12-07T04:14:40;16.07;;;11.27;;
2848;SDS011;59355;52.416;13.412;2022-12-07T04:17:05;16.40;;;11.70;;
2848;SDS011;59355;52.416;13.412;2022-12-07T04:19:31;15.37;;;10.63;;
2848;SDS011;59355;52.416;13.412;2022-12-07T04:21:58;23.60;;;13.63;;
2848;SDS011;59355;52.416;13.412;2022-12-07T04:24:25;18.20;;;13.47;;
2848;SDS011;59355;52.416;13.412;2022-12-07T04:26:50;22.23;;;14.93;;
2848;SDS011;59355;52.416;13.412;2022-12-07T04:29:16;19.63;;;14.67;;
2848;SDS011;59355;52.416;13.412;2022-12-07T04:31:42;22.67;;;15.80;;
2848;SDS011;59355;52.416;13.412;2022-12-07T04:34:08;17.77;;;13.37;;
2848;SDS011;59355;52.416;13.412;2022-12-07T04:36:33;19.03;;;14.30;;
2848;SDS011;59355;52.416;13.412;2022-12-07T04:38:59;22.90;;;15.80;;
2848;SDS011;59355;52.416;13.412;2022-12-07T04:41:24;23.27;;;15.70;;
2848;SDS011;59355;52.416;13.412;2022-12-07T04:43:59;23.30;;;16.57;;
2848;SDS011;59355;52.416;13.412;2022-12-07T04:46:26;26.57;;;18.10;;
2848;SDS011;59355;52.416;13.412;2022-12-07T04:48:52;24.30;;;16.00;;
2848;SDS011;59355;52.416;13.412;2022-12-07T04:51:20;25.80;;;17.53;;
2848;SDS011;59355;52.416;13.412;2022-12-07T04:53:49;30.73;;;19.93;;
2848;SDS011;59355;52.416;13.412;2022-12-07T04:56:15;27.03;;;17.93;;
2848;SDS011;59355;52.416;13.412;2022-12-07T04:58:41;23.07;;;17.43;;
2848;SDS011;59355;52.416;13.412;2022-12-07T05:01:07;25.80;;;17.93;;
2848;SDS011;59355;52.416;13.412;2022-12-07T05:03:33;29.40;;;19.30;;
2848;SDS011;59355;52.416;13.412;2022-12-07T05:05:58;33.07;;;20.60;;
2848;SDS011;59355;52.416;13.412;2022-12-07T05:08:24;26.33;;;18.33;;
2848;SDS011;59355;52.416;13.412;2022-12-07T05:10:49;27.27;;;17.90;;
2848;SDS011;59355;52.416;13.412;2022-12-07T05:13:15;30.50;;;20.17;;
2848;SDS011;59355;52.416;13.412;2022-12-07T05:15:40;28.37;;;19.80;;
2848;SDS011;59355;52.416;13.412;2022-12-07T05:18:07;27.77;;;19.27;;
2848;SDS011;59355;52.416;13.412;2022-12-07T05:20:33;28.70;;;18.17;;
2848;SDS011;59355;52.416;13.412;2022-12-07T05:22:58;29.97;;;19.37;;
2848;SDS011;59355;52.416;13.412;2022-12-07T05:25:23;29.30;;;19.93;;
2848;SDS011;59355;52.416;13.412;2022-12-07T05:27:49;30.73;;;20.07;;
2848;SDS011;59355;52.416;13.412;2022-12-07T05:30:14;28.63;;;18.63;;
2848;SDS011;59355;52.416;13.412;2022-12-07T05:32:39;28.40;;;18.87;;
2848;SDS011;59355;52.416;13.412;2022-12-07T05:35:05;25.77;;;17.80;;
2848;SDS011;59355;52.416;13.412;2022-12-07T05:37:30;32.30;;;19.30;;
2848;SDS011;59355;52.416;13.412;2022-12-07T05:39:56;29.03;;;18.27;;
2848;SDS011;59355;52.416;13.412;2022-12-07T05:42:21;30.27;;;18.90;;
2848;SDS011;59355;52.416;13.412;2022-12-07T05:44:47;29.70;;;21.00;;
2848;SDS011;59355;52.416;13.412;2022-12-07T05:47:12;28.60;;;19.87;;
2848;SDS011;59355;52.416;13.412;2022-12-07T05:49:38;32.80;;;20.40;;
2848;SDS011;59355;52.416;13.412;2022-12-07T05:52:04;37.43;;;20.70;;
2848;SDS011;59355;52.416;13.412;2022-12-07T05:54:29;35.47;;;21.37;;
2848;SDS011;59355;52.416;13.412;2022-12-07T05:56:55;36.13;;;21.43;;
2848;SDS011;59355;52.416;13.412;2022-12-07T05:59:20;37.50;;;22.20;;
2848;SDS011;59355;52.416;13.412;2022-12-07T06:02:08;37.03;;;22.63;;
2848;SDS011;59355;52.416;13.412;2022-12-07T06:04:36;34.97;;;21.50;;
2848;SDS011;59355;52.416;13.412;2022-12-07T06:07:03;35.60;;;22.60;;
2848;SDS011;59355;52.416;13.412;2022-12-07T06:09:29;37.57;;;23.03;;
2848;SDS011;59355;52.416;13.412;2022-12-07T06:11:54;32.50;;;22.17;;
2848;SDS011;59355;52.416;13.412;2022-12-07T06:14:39;43.50;;;24.20;;
2848;SDS011;59355;52.416;13.412;2022-12-07T06:17:04;37.47;;;21.10;;
2848;SDS011;59355;52.416;13.412;2022-12-07T06:19:30;41.43;;;22.47;;
2848;SDS011;59355;52.416;13.412;2022-12-07T06:21:55;38.37;;;23.63;;
2848;SDS011;59355;52.416;13.412;2022-12-07T06:24:21;38.67;;;22.23;;
2848;SDS011;59355;52.416;13.412;2022-12-07T06:26:46;36.10;;;22.93;;
2848;SDS011;59355;52.416;13.412;2022-12-07T06:29:11;39.37;;;23.23;;
2848;SDS011;59355;52.416;13.412;2022-12-07T06:31:37;36.27;;;21.87;;
2848;SDS011;59355;52.416;13.412;2022-12-07T06:34:08;36.97;;;22.60;;
2848;SDS011;59355;52.416;13.412;2022-12-07T06:36:34;37.73;;;21.97;;
2848;SDS011;59355;52.416;13.412;2022-12-07T06:39:00;32.43;;;23.63;;
2848;SDS011;59355;52.416;13.412;2022-12-07T06:41:25;42.50;;;24.87;;
2848;SDS011;59355;52.416;13.412;2022-12-07T06:43:51;41.10;;;24.33;;
2848;SDS011;59355;52.416;13.412;2022-12-07T06:46:16;40.37;;;26.50;;
2848;SDS011;59355;52.416;13.412;2022-12-07T06:48:42;35.93;;;24.27;;
2848;SDS011;59355;52.416;13.412;2022-12-07T06:51:07;39.73;;;23.20;;
2848;SDS011;59355;52.416;13.412;2022-12-07T06:53:33;37.70;;;22.20;;
2848;SDS011;59355;52.416;13.412;2022-12-07T06:55:58;36.33;;;23.03;;
2848;SDS011;59355;52.416;13.412;2022-12-07T06:58:23;41.13;;;25.87;;
2848;SDS011;59355;52.416;13.412;2022-12-07T07:00:49;44.03;;;23.90;;
2848;SDS011;59355;52.416;13.412;2022-12-07T07:03:15;43.67;;;25.93;;
2848;SDS011;59355;52.416;13.412;2022-12-07T07:05:41;35.70;;;22.87;;
2848;SDS011;59355;52.416;13.412;2022-12-07T07:08:06;37.40;;;23.07;;
2848;SDS011;59355;52.416;13.412;2022-12-07T07:10:32;42.10;;;23.53;;
2848;SDS011;59355;52.416;13.412;2022-12-07T07:12:57;35.93;;;23.70;;
2848;SDS011;59355;52.416;13.412;2022-12-07T07:15:22;37.10;;;23.33;;
2848;SDS011;59355;52.416;13.412;2022-12-07T07:17:48;35.47;;;23.30;;
2848;SDS011;59355;52.416;13.412;2022-12-07T07:20:13;35.03;;;24.17;;
2848;SDS011;59355;52.416;13.412;2022-12-07T07:22:38;39.63;;;23.70;;
2848;SDS011;59355;52.416;13.412;2022-12-07T07:25:04;40.20;;;25.13;;
2848;SDS011;59355;52.416;13.412;2022-12-07T07:27:29;39.47;;;24.47;;
2848;SDS011;59355;52.416;13.412;2022-12-07T07:29:54;34.17;;;23.00;;
2848;SDS011;59355;52.416;13.412;2022-12-07T07:32:20;41.97;;;24.90;;
2848;SDS011;59355;52.416;13.412;2022-12-07T07:34:46;36.83;;;21.00;;
2848;SDS011;59355;52.416;13.412;2022-12-07T07:37:12;34.03;;;23.80;;
2848;SDS011;59355;52.416;13.412;2022-12-07T07:39:37;35.00;;;23.07;;
2848;SDS011;59355;52.416;13.412;2022-12-07T07:42:03;35.17;;;24.53;;
2848;SDS011;59355;52.416;13.412;2022-12-07T07:44:28;38.57;;;22.37;;
2848;SDS011;59355;52.416;13.412;2022-12-07T07:46:53;33.67;;;23.00;;
2848;SDS011;59355;52.416;13.412;2022-12-07T07:49:19;32.57;;;21.40;;
2848;SDS011;59355;52.416;13.412;2022-12-07T07:51:44;32.73;;;21.30;;
2848;SDS011;59355;52.416;13.412;2022-12-07T07:54:09;26.70;;;18.53;;
2848;SDS011;59355;52.416;13.412;2022-12-07T07:56:35;29.50;;;19.83;;
2848;SDS011;59355;52.416;13.412;2022-12-07T07:59:00;29.10;;;19.40;;
2848;SDS011;59355;52.416;13.412;2022-12-07T08:01:25;26.33;;;18.53;;
2848;SDS011;59355;52.416;13.412;2022-12-07T08:03:50;25.23;;;17.43;;
2848;SDS011;59355;52.416;13.412;2022-12-07T08:06:16;26.30;;;18.40;;
2848;SDS011;59355;52.416;13.412;2022-12-07T08:08:41;22.30;;;16.73;;
2848;SDS011;59355;52.416;13.412;2022-12-07T08:11:08;18.90;;;14.47;;
2848;SDS011;59355;52.416;13.412;2022-12-07T08:13:34;26.00;;;17.23;;
2848;SDS011;59355;52.416;13.412;2022-12-07T08:16:03;21.57;;;13.33;;
2848;SDS011;59355;52.416;13.412;2022-12-07T08:18:37;25.20;;;14.63;;
2848;SDS011;59355;52.416;13.412;2022-12-07T08:21:03;20.13;;;14.00;;
2848;SDS011;59355;52.416;13.412;2022-12-07T08:23:29;19.83;;;13.43;;
2848;SDS011;59355;52.416;13.412;2022-12-07T08:25:59;17.20;;;12.73;;
2848;SDS011;59355;52.416;13.412;2022-12-07T08:28:28;19.90;;;14.53;;
2848;SDS011;59355;52.416;13.412;2022-12-07T08:31:04;15.57;;;9.97;;
2848;SDS011;59355;52.416;13.412;2022-12-07T08:33:31;12.17;;;8.40;;
2848;SDS011;59355;52.416;13.412;2022-12-07T08:36:03;13.70;;;7.30;;
2848;SDS011;59355;52.416;13.412;2022-12-07T08:38:30;10.33;;;7.77;;
2848;SDS011;59355;52.416;13.412;2022-12-07T08:40:56;8.90;;;7.00;;
2848;SDS011;59355;52.416;13.412;2022-12-07T08:43:22;11.73;;;8.70;;
2848;SDS011;59355;52.416;13.412;2022-12-07T08:45:53;9.83;;;8.10;;
2848;SDS011;59355;52.416;13.412;2022-12-07T08:48:23;9.60;;;8.00;;
2848;SDS011;59355;52.416;13.412;2022-12-07T08:50:50;9.40;;;7.90;;
2848;SDS011;59355;52.416;13.412;2022-12-07T08:53:16;7.93;;;7.00;;
2848;SDS011;59355;52.416;13.412;2022-12-07T08:55:41;8.13;;;6.93;;
2848;SDS011;59355;52.416;13.412;2022-12-07T08:58:06;11.03;;;7.63;;
2848;SDS011;59355;52.416;13.412;2022-12-07T09:00:32;8.93;;;7.30;;
2848;SDS011;59355;52.416;13.412;2022-12-07T09:02:57;15.57;;;8.47;;
2848;SDS011;59355;52.416;13.412;2022-12-07T09:05:22;12.80;;;8.20;;
2848;SDS011;59355;52.416;13.412;2022-12-07T09:07:49;8.20;;;6.63;;
2848;SDS011;59355;52.416;13.412;2022-12-07T09:10:16;7.53;;;6.70;;
2848;SDS011;59355;52.416;13.412;2022-12-07T09:12:42;7.17;;;6.47;;
2848;SDS011;59355;52.416;13.412;2022-12-07T09:15:08;5.23;;;4.77;;
2848;SDS011;59355;52.416;13.412;2022-12-07T09:17:33;4.97;;;4.10;;
2848;SDS011;59355;52.416;13.412;2022-12-07T09:20:00;4.37;;;3.60;;
2848;SDS011;59355;52.416;13.412;2022-12-07T09:22:28;4.33;;;3.37;;
2848;SDS011;59355;52.416;13.412;2022-12-07T09:24:54;3.77;;;3.47;;
2848;SDS011;59355;52.416;13.412;2022-12-07T09:27:19;3.60;;;3.30;;
2848;SDS011;59355;52.416;13.412;2022-12-07T09:29:44;5.50;;;3.60;;
2848;SDS011;59355;52.416;13.412;2022-12-07T09:32:10;4.00;;;3.53;;
2848;SDS011;59355;52.416;13.412;2022-12-07T09:34:35;4.70;;;3.70;;
2848;SDS011;59355;52.416;13.412;2022-12-07T09:37:01;4.00;;;3.70;;
2848;SDS011;59355;52.416;13.412;2022-12-07T09:39:27;2.80;;;2.60;;
2848;SDS011;59355;52.416;13.412;2022-12-07T09:41:53;6.60;;;3.20;;
2848;SDS011;59355;52.416;13.412;2022-12-07T09:44:20;3.50;;;3.20;;
2848;SDS011;59355;52.416;13.412;2022-12-07T09:46:48;4.20;;;3.73;;
2848;SDS011;59355;52.416;13.412;2022-12-07T09:49:16;4.10;;;3.80;;
2848;SDS011;59355;52.416;13.412;2022-12-07T09:51:43;5.23;;;3.60;;
2848;SDS011;59355;52.416;13.412;2022-12-07T09:54:09;4.00;;;3.70;;
2848;SDS011;59355;52.416;13.412;2022-12-07T09:56:40;4.43;;;3.73;;
2848;SDS011;59355;52.416;13.412;2022-12-07T09:59:06;3.93;;;3.63;;
2848;SDS011;59355;52.416;13.412;2022-12-07T10:01:37;6.10;;;3.87;;
2848;SDS011;59355;52.416;13.412;2022-12-07T10:04:12;3.33;;;3.13;;
2848;SDS011;59355;52.416;13.412;2022-12-07T10:06:42;3.60;;;3.30;;
2848;SDS011;59355;52.416;13.412;2022-12-07T10:09:08;3.73;;;3.43;;
2848;SDS011;59355;52.416;13.412;2022-12-07T10:11:35;4.43;;;3.47;;
2848;SDS011;59355;52.416;13.412;2022-12-07T10:14:10;3.40;;;2.97;;
2848;SDS011;59355;52.416;13.412;2022-12-07T10:16:38;4.07;;;3.30;;
2848;SDS011;59355;52.416;13.412;2022-12-07T10:21:59;3.80;;;3.50;;
2848;SDS011;59355;52.416;13.412;2022-12-07T10:24:24;2.57;;;2.37;;
2848;SDS011;59355;52.416;13.412;2022-12-07T10:26:50;6.60;;;3.23;;
2848;SDS011;59355;52.416;13.412;2022-12-07T10:29:30;3.50;;;3.20;;
2848;SDS011;59355;52.416;13.412;2022-12-07T10:34:40;3.23;;;3.03;;
2848;SDS011;59355;52.416;13.412;2022-12-07T10:37:07;4.07;;;2.97;;
2848;SDS011;59355;52.416;13.412;2022-12-07T10:39:45;3.63;;;3.33;;
2848;SDS011;59355;52.416;13.412;2022-12-07T10:42:19;3.57;;;3.27;;
2848;SDS011;59355;52.416;13.412;2022-12-07T10:44:50;4.27;;;3.40;;
2848;SDS011;59355;52.416;13.412;2022-12-07T10:47:36;3.80;;;3.50;;
2848;SDS011;59355;52.416;13.412;2022-12-07T11:01:42;8.30;;;5.07;;
2848;SDS011;59355;52.416;13.412;2022-12-07T11:04:15;5.10;;;4.60;;
2848;SDS011;59355;52.416;13.412;2022-12-07T11:10:11;5.40;;;4.97;;
2848;SDS011;59355;52.416;13.412;2022-12-07T11:12:47;5.87;;;5.00;;
2848;SDS011;59355;52.416;13.412;2022-12-07T11:15:22;4.40;;;4.00;;
2848;SDS011;59355;52.416;13.412;2022-12-07T11:18:03;6.27;;;5.23;;
2848;SDS011;59355;52.416;13.412;2022-12-07T11:31:30;6.33;;;5.47;;
2848;SDS011;59355;52.416;13.412;2022-12-07T11:34:24;6.07;;;5.53;;
2848;SDS011;59355;52.416;13.412;2022-12-07T11:37:05;7.00;;;5.33;;
2848;SDS011;59355;52.416;13.412;2022-12-07T11:39:39;5.87;;;5.03;;
2848;SDS011;59355;52.416;13.412;2022-12-07T11:45:02;7.80;;;5.23;;
2848;SDS011;59355;52.416;13.412;2022-12-07T11:50:26;8.37;;;5.10;;
2848;SDS011;59355;52.416;13.412;2022-12-07T11:58:14;6.37;;;5.37;;
2848;SDS011;59355;52.416;13.412;2022-12-07T12:00:46;6.40;;;4.50;;
2848;SDS011;59355;52.416;13.412;2022-12-07T12:03:15;5.43;;;4.93;;
2848;SDS011;59355;52.416;13.412;2022-12-07T12:05:56;9.40;;;4.33;;
2848;SDS011;59355;52.416;13.412;2022-12-07T12:08:24;8.53;;;4.57;;
2848;SDS011;59355;52.416;13.412;2022-12-07T12:16:34;4.60;;;4.20;;
2848;SDS011;59355;52.416;13.412;2022-12-07T12:19:31;4.27;;;3.93;;
2848;SDS011;59355;52.416;13.412;2022-12-07T12:22:03;5.80;;;4.70;;
2848;SDS011;59355;52.416;13.412;2022-12-07T12:24:35;4.83;;;4.43;;
2848;SDS011;59355;52.416;13.412;2022-12-07T12:27:04;8.33;;;4.50;;
2848;SDS011;59355;52.416;13.412;2022-12-07T12:29:33;4.67;;;4.27;;
2848;SDS011;59355;52.416;13.412;2022-12-07T12:32:06;6.57;;;4.13;;
2848;SDS011;59355;52.416;13.412;2022-12-07T12:42:43;4.90;;;4.37;;
2848;SDS011;59355;52.416;13.412;2022-12-07T12:45:20;5.90;;;4.37;;
2848;SDS011;59355;52.416;13.412;2022-12-07T12:48:02;6.77;;;4.40;;
2848;SDS011;59355;52.416;13.412;2022-12-07T12:50:29;6.03;;;4.13;;
2848;SDS011;59355;52.416;13.412;2022-12-07T12:53:12;6.50;;;4.00;;
2848;SDS011;59355;52.416;13.412;2022-12-07T12:56:09;6.77;;;3.90;;
2848;SDS011;59355;52.416;13.412;2022-12-07T12:58:40;7.43;;;4.23;;
2848;SDS011;59355;52.416;13.412;2022-12-07T13:03:59;4.07;;;3.67;;
2848;SDS011;59355;52.416;13.412;2022-12-07T13:08:51;12.53;;;5.10;;
2848;SDS011;59355;52.416;13.412;2022-12-07T13:11:29;7.00;;;3.97;;
2848;SDS011;59355;52.416;13.412;2022-12-07T13:16:58;3.77;;;3.30;;
2848;SDS011;59355;52.416;13.412;2022-12-07T13:24:55;6.00;;;3.40;;
2848;SDS011;59355;52.416;13.412;2022-12-07T13:27:21;5.87;;;3.67;;
2848;SDS011;59355;52.416;13.412;2022-12-07T13:29:47;8.23;;;4.40;;
2848;SDS011;59355;52.416;13.412;2022-12-07T13:32:23;3.90;;;2.87;;
2848;SDS011;59355;52.416;13.412;2022-12-07T13:34:49;5.30;;;3.67;;
2848;SDS011;59355;52.416;13.412;2022-12-07T13:37:24;4.90;;;3.77;;
2848;SDS011;59355;52.416;13.412;2022-12-07T13:39:56;8.50;;;4.23;;
2848;SDS011;59355;52.416;13.412;2022-12-07T13:42:26;4.40;;;3.83;;
2848;SDS011;59355;52.416;13.412;2022-12-07T13:44:59;3.63;;;3.33;;
2848;SDS011;59355;52.416;13.412;2022-12-07T13:47:31;6.83;;;3.67;;
2848;SDS011;59355;52.416;13.412;2022-12-07T13:50:00;4.37;;;3.50;;
2848;SDS011;59355;52.416;13.412;2022-12-07T13:52:26;6.90;;;3.67;;
2848;SDS011;59355;52.416;13.412;2022-12-07T13:54:57;5.30;;;3.00;;
2848;SDS011;59355;52.416;13.412;2022-12-07T13:57:27;4.33;;;3.53;;
2848;SDS011;59355;52.416;13.412;2022-12-07T13:59:55;4.77;;;3.97;;
2848;SDS011;59355;52.416;13.412;2022-12-07T14:02:25;4.10;;;3.63;;
2848;SDS011;59355;52.416;13.412;2022-12-07T14:04:51;5.20;;;3.73;;
2848;SDS011;59355;52.416;13.412;2022-12-07T14:07:31;8.00;;;4.17;;
2848;SDS011;59355;52.416;13.412;2022-12-07T14:10:05;8.53;;;3.43;;
2848;SDS011;59355;52.416;13.412;2022-12-07T14:12:31;6.10;;;3.90;;
2848;SDS011;59355;52.416;13.412;2022-12-07T14:14:58;7.17;;;3.50;;
2848;SDS011;59355;52.416;13.412;2022-12-07T14:17:25;6.40;;;4.20;;
2848;SDS011;59355;52.416;13.412;2022-12-07T14:19:52;5.83;;;3.97;;
2848;SDS011;59355;52.416;13.412;2022-12-07T14:22:27;9.13;;;3.63;;
2848;SDS011;59355;52.416;13.412;2022-12-07T14:24:58;6.00;;;3.93;;
2848;SDS011;59355;52.416;13.412;2022-12-07T14:27:38;6.67;;;3.90;;
2848;SDS011;59355;52.416;13.412;2022-12-07T14:30:04;8.33;;;4.27;;
2848;SDS011;59355;52.416;13.412;2022-12-07T14:32:30;11.23;;;4.00;;
2848;SDS011;59355;52.416;13.412;2022-12-07T14:35:09;6.50;;;4.10;;
2848;SDS011;59355;52.416;13.412;2022-12-07T14:37:37;5.97;;;4.23;;
2848;SDS011;59355;52.416;13.412;2022-12-07T14:40:03;5.00;;;4.27;;
2848;SDS011;59355;52.416;13.412;2022-12-07T14:42:29;5.93;;;4.27;;
2848;SDS011;59355;52.416;13.412;2022-12-07T14:44:56;6.10;;;3.77;;
2848;SDS011;59355;52.416;13.412;2022-12-07T14:47:22;9.10;;;4.47;;
2848;SDS011;59355;52.416;13.412;2022-12-07T14:49:48;4.70;;;3.97;;
2848;SDS011;59355;52.416;13.412;2022-12-07T14:52:15;5.57;;;4.10;;
2848;SDS011;59355;52.416;13.412;2022-12-07T14:54:42;6.07;;;4.23;;
2848;SDS011;59355;52.416;13.412;2022-12-07T14:57:11;7.20;;;4.33;;
2848;SDS011;59355;52.416;13.412;2022-12-07T14:59:36;6.07;;;3.73;;
2848;SDS011;59355;52.416;13.412;2022-12-07T15:02:02;5.00;;;3.73;;
2848;SDS011;59355;52.416;13.412;2022-12-07T15:04:28;8.53;;;4.90;;
2848;SDS011;59355;52.416;13.412;2022-12-07T15:06:57;4.40;;;3.30;;
2848;SDS011;59355;52.416;13.412;2022-12-07T15:09:23;9.37;;;4.60;;
2848;SDS011;59355;52.416;13.412;2022-12-07T15:11:48;5.27;;;3.50;;
2848;SDS011;59355;52.416;13.412;2022-12-07T15:14:14;7.90;;;3.70;;
2848;SDS011;59355;52.416;13.412;2022-12-07T15:16:40;8.60;;;3.73;;
2848;SDS011;59355;52.416;13.412;2022-12-07T15:19:14;7.77;;;4.53;;
2848;SDS011;59355;52.416;13.412;2022-12-07T15:21:41;6.20;;;4.13;;
2848;SDS011;59355;52.416;13.412;2022-12-07T15:24:07;7.03;;;4.70;;
2848;SDS011;59355;52.416;13.412;2022-12-07T15:26:36;9.53;;;4.43;;
2848;SDS011;59355;52.416;13.412;2022-12-07T15:29:02;9.33;;;4.40;;
2848;SDS011;59355;52.416;13.412;2022-12-07T15:31:27;5.80;;;3.83;;
2848;SDS011;59355;52.416;13.412;2022-12-07T15:33:53;4.33;;;3.80;;
2848;SDS011;59355;52.416;13.412;2022-12-07T15:36:23;4.60;;;3.80;;
2848;SDS011;59355;52.416;13.412;2022-12-07T15:38:49;10.10;;;4.57;;
2848;SDS011;59355;52.416;13.412;2022-12-07T15:41:15;6.67;;;5.03;;
2848;SDS011;59355;52.416;13.412;2022-12-07T15:43:40;9.17;;;4.90;;
2848;SDS011;59355;52.416;13.412;2022-12-07T15:46:34;7.80;;;4.80;;
2848;SDS011;59355;52.416;13.412;2022-12-07T15:49:01;11.07;;;6.37;;
2848;SDS011;59355;52.416;13.412;2022-12-07T15:51:26;10.03;;;4.60;;
2848;SDS011;59355;52.416;13.412;2022-12-07T15:53:52;6.83;;;5.00;;
2848;SDS011;59355;52.416;13.412;2022-12-07T15:56:18;3.90;;;3.50;;
2848;SDS011;59355;52.416;13.412;2022-12-07T15:58:43;5.07;;;4.50;;
2848;SDS011;59355;52.416;13.412;2022-12-07T16:01:12;12.57;;;4.60;;
2848;SDS011;59355;52.416;13.412;2022-12-07T16:03:38;4.33;;;3.93;;
2848;SDS011;59355;52.416;13.412;2022-12-07T16:06:03;6.10;;;4.77;;
2848;SDS011;59355;52.416;13.412;2022-12-07T16:08:29;6.67;;;3.73;;
2848;SDS011;59355;52.416;13.412;2022-12-07T16:10:54;7.00;;;4.27;;
2848;SDS011;59355;52.416;13.412;2022-12-07T16:13:19;5.90;;;3.83;;